joomla templates top joomla templates template joomla

King Air Abend

Notam

C3641/14 - CUSTOMS AVBL PPR, TEL 0049 9561 92098. 13 NOV 14:46 2014 UNTIL PERM. CREATED: 13 NOV 14:47 2014

Neue Wetteranzeige

Aktuelles Platzwetter Stand 22.08.2017 03:42Z

AvgMinMax
Windrichtung806080Deg
Windgeschwindigkeit334kt
Sichtweite>10000m
Temperatur9°C
Taupunkt9°C
Feuchte100%
QNH1023.1hPa
QFE969.3hPa
WolkenOVC060

Aerodrome Terminal Information Service (ATIS) Coburg

METAR
EDQC 220320Z AUTO 07003KT CAVOK 09/09 Q1023=

METAR und TAF der Umgebung

[Quelle: ADDS]
METAR
EDDF 220320Z 05003KT 360V080 CAVOK 12/11 Q1022 NOSIG =
EDDN 220320Z 11002KT 9999 MIFG NSC 08/08 Q1023 =
EDDE 220320Z 22007KT CAVOK 07/06 Q1022 =
TAF
EDDF 212300Z 2200/2306 05005KT CAVOK =
EDDN 212300Z 2200/2224 VRB03KT CAVOK =
EDDE 212300Z 2200/2224 24005KT CAVOK BECMG 2208/2210 32006KT BECMG 2216/2218 04004KT =
SR / SS: 04:18 / 18:22 UTC (EDQC 2017-08-22)

Wetterverlauf

Windvorhersage

Verkehrslandeplatz Coburg Brandensteinsebene
Tower
Zur Brandensteinsebene
96450 Coburg

AeroClub Logo 200px

Aero Club Coburg e. V.
Postfach 11 09
96401 Coburg